createdAt,value
2023-02-03T00:00:14.609Z,98921.09
2023-02-03T00:03:18.883Z,98922.59
2023-02-03T00:06:21.635Z,98934.81
2023-02-03T00:09:24.579Z,98927.63
2023-02-03T00:12:27.309Z,98936.66
2023-02-03T00:15:30.254Z,98937.00
2023-02-03T00:18:34.393Z,98933.66
2023-02-03T00:21:37.129Z,98941.38
2023-02-03T00:24:39.881Z,98933.38
2023-02-03T00:27:42.728Z,98928.84
2023-02-03T00:30:45.593Z,98937.03
2023-02-03T00:33:49.988Z,98936.56
2023-02-03T00:36:52.797Z,98937.06
2023-02-03T00:39:55.585Z,98927.88
2023-02-03T00:42:58.367Z,98932.38
2023-02-03T00:46:01.400Z,98917.38
2023-02-03T00:49:05.840Z,98916.53
2023-02-03T00:52:08.615Z,98910.50
2023-02-03T00:55:11.364Z,98917.69
2023-02-03T00:58:14.172Z,98909.00
2023-02-03T01:01:16.953Z,98914.34
2023-02-03T01:04:21.105Z,98920.19
2023-02-03T01:07:23.844Z,98926.06
2023-02-03T01:10:26.893Z,98932.41
2023-02-03T01:13:29.844Z,98933.72
2023-02-03T01:16:36.342Z,98936.88
2023-02-03T01:19:40.657Z,98933.06
2023-02-03T01:22:43.832Z,98931.22
2023-02-03T01:25:46.574Z,98917.31
2023-02-03T01:28:52.464Z,98923.22
2023-02-03T01:31:55.357Z,98925.69
2023-02-03T01:34:59.608Z,98928.00
2023-02-03T01:38:02.367Z,98933.00
2023-02-03T01:41:05.938Z,98934.16
2023-02-03T01:44:27.464Z,98927.16
2023-02-03T01:47:32.309Z,98930.31
2023-02-03T01:50:38.247Z,98919.81
2023-02-03T01:53:41.592Z,98928.97
2023-02-03T01:56:47.191Z,98923.63
2023-02-03T01:59:50.609Z,98919.47
2023-02-03T02:02:53.856Z,98918.97
2023-02-03T02:06:01.793Z,98928.13
2023-02-03T02:09:04.779Z,98930.31
2023-02-03T02:12:07.563Z,98934.81
2023-02-03T02:15:10.965Z,98929.94
2023-02-03T02:18:22.650Z,98932.63
2023-02-03T02:21:41.755Z,98936.47
2023-02-03T02:25:05.341Z,98939.13
2023-02-03T02:28:23.738Z,98941.09
2023-02-03T02:31:45.273Z,98937.59
2023-02-03T02:34:53.183Z,98932.75
2023-02-03T02:38:00.969Z,98935.44
2023-02-03T02:41:06.907Z,98928.25
2023-02-03T02:44:13.423Z,98934.59
2023-02-03T02:47:19.192Z,98938.41
2023-02-03T02:50:25.884Z,98930.75
2023-02-03T02:53:33.488Z,98930.88
2023-02-03T02:56:38.028Z,98931.03
2023-02-03T02:59:40.840Z,98931.22
2023-02-03T03:02:43.622Z,98922.56
2023-02-03T03:05:50.822Z,98934.88
2023-02-03T03:08:57.108Z,98927.34
2023-02-03T03:12:02.791Z,98931.19
2023-02-03T03:15:08.384Z,98940.88
2023-02-03T03:18:14.308Z,98926.16
2023-02-03T03:21:26.979Z,98932.50
2023-02-03T03:24:31.841Z,98934.50
2023-02-03T03:27:37.150Z,98936.50
2023-02-03T03:30:40.426Z,98927.66
2023-02-03T03:33:43.389Z,98932.47
2023-02-03T03:36:49.546Z,98933.13
2023-02-03T03:39:55.290Z,98934.97
2023-02-03T03:43:01.372Z,98938.81
2023-02-03T03:46:08.260Z,98934.31
2023-02-03T03:49:11.877Z,98938.25
2023-02-03T03:52:17.892Z,98931.25
2023-02-03T03:55:21.751Z,98938.25
2023-02-03T03:58:26.177Z,98946.09
2023-02-03T04:01:30.629Z,98942.91
2023-02-03T04:04:34.498Z,98938.16
2023-02-03T04:07:42.466Z,98942.88
2023-02-03T04:10:45.427Z,98936.88
2023-02-03T04:13:48.213Z,98949.09
2023-02-03T04:16:51.036Z,98946.97
2023-02-03T04:19:53.839Z,98944.84
2023-02-03T04:22:58.137Z,98947.81
2023-02-03T04:26:02.091Z,98952.66
2023-02-03T04:29:04.881Z,98955.00
2023-02-03T04:32:07.671Z,98957.00
2023-02-03T04:35:10.516Z,98955.84
2023-02-03T04:38:14.672Z,98958.88
2023-02-03T04:41:17.477Z,98965.03
2023-02-03T04:44:20.175Z,98961.06
2023-02-03T04:47:23.039Z,98955.06
2023-02-03T04:50:25.984Z,98960.41
2023-02-03T04:53:30.322Z,98957.22
2023-02-03T04:56:33.113Z,98958.78
2023-02-03T04:59:35.911Z,98956.75
2023-02-03T05:02:38.669Z,98962.44
2023-02-03T05:05:41.452Z,98962.09
2023-02-03T05:08:45.690Z,98962.75
2023-02-03T05:11:48.423Z,98962.94
2023-02-03T05:14:51.153Z,98961.94
2023-02-03T05:17:54.124Z,98965.28
2023-02-03T05:20:56.941Z,98976.47
2023-02-03T05:24:03.283Z,98964.47
2023-02-03T05:27:06.108Z,98971.63
2023-02-03T05:30:09.567Z,98970.63
2023-02-03T05:33:12.369Z,98976.47
2023-02-03T05:36:15.216Z,98973.31
2023-02-03T05:39:19.328Z,98977.63
2023-02-03T05:42:21.078Z,98977.63
2023-02-03T05:45:23.895Z,98985.13
2023-02-03T05:48:26.605Z,98979.81
2023-02-03T05:51:29.494Z,98982.50
2023-02-03T05:54:33.670Z,98986.66
2023-02-03T05:57:36.449Z,98985.47
2023-02-03T06:00:39.185Z,98992.19
2023-02-03T06:03:44.412Z,98988.69
2023-02-03T06:06:48.566Z,98996.53
2023-02-03T06:09:52.721Z,98997.19
2023-02-03T06:12:55.570Z,98989.81
2023-02-03T06:15:58.403Z,98995.50
2023-02-03T06:19:02.151Z,98993.16
2023-02-03T06:22:04.948Z,98995.00
2023-02-03T06:25:11.843Z,98990.81
2023-02-03T06:28:16.375Z,98996.47
2023-02-03T06:31:19.332Z,98992.09
2023-02-03T06:34:22.111Z,98992.44
2023-02-03T06:37:24.965Z,98994.41
2023-02-03T06:40:29.513Z,98989.91
2023-02-03T06:43:32.745Z,98997.78
2023-02-03T06:46:35.579Z,99001.09
2023-02-03T06:49:38.296Z,98999.75
2023-02-03T06:52:41.047Z,98999.41
2023-02-03T06:55:45.205Z,99000.91
2023-02-03T06:58:48.017Z,99005.41
2023-02-03T07:01:50.856Z,99009.56
2023-02-03T07:04:53.660Z,99007.19
2023-02-03T07:07:56.504Z,99019.03
2023-02-03T07:11:00.734Z,99020.03
2023-02-03T07:14:04.055Z,99016.00
2023-02-03T07:17:07.186Z,99018.03
2023-02-03T07:20:10.334Z,99023.81
2023-02-03T07:23:13.096Z,99016.66
2023-02-03T07:26:17.643Z,99025.16
2023-02-03T07:29:20.448Z,99017.31
2023-02-03T07:32:23.189Z,99027.47
2023-02-03T07:35:25.988Z,99022.47
2023-02-03T07:38:29.213Z,99022.59
2023-02-03T07:41:33.340Z,99021.94
2023-02-03T07:44:36.074Z,99018.44
2023-02-03T07:47:39.037Z,99017.91
2023-02-03T07:50:42.147Z,99023.41
2023-02-03T07:53:44.864Z,99028.56
2023-02-03T07:56:49.052Z,99030.56
2023-02-03T07:59:51.841Z,99026.22
2023-02-03T08:02:54.833Z,99029.91
2023-02-03T08:05:57.644Z,99038.19
2023-02-03T08:09:00.413Z,99028.53
2023-02-03T08:12:04.792Z,99037.53
2023-02-03T08:15:08.668Z,99038.69
2023-02-03T08:18:12.726Z,99036.19
2023-02-03T08:21:15.479Z,99039.81
2023-02-03T08:24:18.272Z,99041.81
2023-02-03T08:27:24.001Z,99046.31
2023-02-03T08:30:27.507Z,99041.13
2023-02-03T08:33:30.540Z,99039.53
2023-02-03T08:36:33.280Z,99040.03
2023-02-03T08:39:36.424Z,99031.41
2023-02-03T08:42:40.604Z,99033.81
2023-02-03T08:45:43.470Z,99035.50
2023-02-03T08:48:46.346Z,99028.72
2023-02-03T08:51:49.414Z,99025.88
2023-02-03T08:54:52.399Z,99043.75
2023-02-03T08:57:57.849Z,99043.63
2023-02-03T09:01:06.851Z,99034.59
2023-02-03T09:04:10.246Z,99033.78
2023-02-03T09:07:13.519Z,99040.41
2023-02-03T09:10:16.469Z,99035.75
2023-02-03T09:13:20.621Z,99034.41
2023-02-03T09:16:23.571Z,99036.41
2023-02-03T09:19:26.542Z,99031.38
2023-02-03T09:22:29.340Z,99035.69
2023-02-03T09:25:32.282Z,99026.53
2023-02-03T09:28:36.944Z,99037.88
2023-02-03T09:31:39.827Z,99024.81
2023-02-03T09:34:42.796Z,99021.28
2023-02-03T09:37:45.622Z,99017.97
2023-02-03T09:40:52.305Z,99017.13
2023-02-03T09:44:01.257Z,99017.44
2023-02-03T09:47:05.586Z,99006.91
2023-02-03T09:50:13.629Z,99023.09
2023-02-03T09:53:24.278Z,99022.09
2023-02-03T09:56:29.101Z,99027.59
2023-02-03T09:59:34.756Z,99021.56
2023-02-03T10:02:50.616Z,99023.06
2023-02-03T10:06:06.007Z,99020.69
2023-02-03T10:09:22.098Z,99017.03
2023-02-03T10:12:48.876Z,99013.69
2023-02-03T10:16:05.414Z,99014.69
2023-02-03T10:19:12.052Z,99008.53
2023-02-03T10:22:17.734Z,99001.81
2023-02-03T10:25:25.008Z,99006.63
2023-02-03T10:28:28.976Z,99005.78
2023-02-03T10:31:36.486Z,98996.56
2023-02-03T10:34:39.791Z,98992.75
2023-02-03T10:37:45.014Z,98988.19
2023-02-03T10:40:48.329Z,98980.22
2023-02-03T10:43:55.534Z,98981.53
2023-02-03T10:47:00.868Z,98979.91
2023-02-03T10:50:07.534Z,98985.31
2023-02-03T10:53:24.026Z,98983.81
2023-02-03T10:56:28.198Z,98971.84
2023-02-03T10:59:32.090Z,98974.66
2023-02-03T11:02:36.475Z,98970.00
2023-02-03T11:05:39.393Z,98970.72
2023-02-03T11:08:43.700Z,98969.34
2023-02-03T11:11:46.544Z,98971.84
2023-02-03T11:14:50.252Z,98967.53
2023-02-03T11:17:54.506Z,98968.66
2023-02-03T11:20:58.190Z,98966.34
2023-02-03T11:24:06.078Z,98975.50
2023-02-03T11:27:11.759Z,98961.63
2023-02-03T11:30:17.156Z,98959.69
2023-02-03T11:33:25.140Z,98963.19
2023-02-03T11:36:29.180Z,98958.00
2023-02-03T11:39:35.709Z,98955.66
2023-02-03T11:42:39.299Z,98953.97
2023-02-03T11:45:43.591Z,98951.00
2023-02-03T11:48:57.738Z,98949.81
2023-02-03T11:52:06.779Z,98946.94
2023-02-03T11:55:17.563Z,98953.34
2023-02-03T11:58:45.979Z,98958.34
2023-02-03T12:01:59.044Z,98958.66
2023-02-03T12:05:15.665Z,98958.09
2023-02-03T12:08:23.536Z,98956.41
2023-02-03T12:11:32.736Z,98944.47
2023-02-03T12:14:46.544Z,98951.66
2023-02-03T12:18:03.820Z,98950.28
2023-02-03T12:21:15.913Z,98952.31
2023-02-03T12:24:26.645Z,98949.97
2023-02-03T12:27:36.581Z,98947.16
2023-02-03T12:30:41.044Z,98955.19
2023-02-03T12:33:46.811Z,98952.78
2023-02-03T12:36:54.587Z,98953.13
2023-02-03T12:39:59.876Z,98951.63
2023-02-03T12:43:08.063Z,98946.59
2023-02-03T12:46:12.998Z,98949.41
2023-02-03T12:49:21.885Z,98945.53
2023-02-03T12:52:27.888Z,98943.28
2023-02-03T12:55:35.529Z,98942.03
2023-02-03T12:58:40.913Z,98932.00
2023-02-03T13:01:46.976Z,98941.63
2023-02-03T13:04:54.298Z,98939.97
2023-02-03T13:08:03.099Z,98937.94
2023-02-03T13:11:15.215Z,98937.09
2023-02-03T13:14:21.763Z,98943.63
2023-02-03T13:17:27.847Z,98935.13
2023-02-03T13:20:31.635Z,98925.81
2023-02-03T13:23:36.070Z,98925.69
2023-02-03T13:26:54.294Z,98927.88
2023-02-03T13:30:07.231Z,98936.56
2023-02-03T13:33:31.270Z,98936.06
2023-02-03T13:36:49.525Z,98927.19
2023-02-03T13:40:05.212Z,98924.03
2023-02-03T13:43:13.098Z,98923.56
2023-02-03T13:46:22.114Z,98924.22
2023-02-03T13:49:26.681Z,98923.53
2023-02-03T13:52:32.991Z,98929.66
2023-02-03T13:55:39.559Z,98926.69
2023-02-03T13:58:42.387Z,98927.53
2023-02-03T14:01:45.913Z,98923.38
2023-02-03T14:04:54.409Z,98919.88
2023-02-03T14:07:57.389Z,98918.69
2023-02-03T14:11:18.961Z,98920.22
2023-02-03T14:14:40.508Z,98918.69
2023-02-03T14:18:04.271Z,98914.16
2023-02-03T14:21:15.796Z,98912.19
2023-02-03T14:24:20.983Z,98906.69
2023-02-03T14:27:25.914Z,98916.00
2023-02-03T14:30:28.972Z,98917.00
2023-02-03T14:33:46.688Z,98921.34
2023-02-03T14:36:53.075Z,98915.84
2023-02-03T14:40:13.862Z,98912.00
2023-02-03T14:43:29.511Z,98915.34
2023-02-03T14:46:41.842Z,98921.69
2023-02-03T14:49:56.066Z,98914.69
2023-02-03T14:53:05.364Z,98916.84
2023-02-03T14:56:14.784Z,98920.03
2023-02-03T14:59:19.842Z,98918.69
2023-02-03T15:02:25.864Z,98917.69
2023-02-03T15:05:39.170Z,98916.16
2023-02-03T15:08:44.308Z,98916.03
2023-02-03T15:11:48.016Z,98910.84
2023-02-03T15:14:52.268Z,98912.81
2023-02-03T15:17:55.922Z,98903.44
2023-02-03T15:20:58.924Z,98905.44
2023-02-03T15:24:01.794Z,98915.63
2023-02-03T15:27:04.716Z,98911.13
2023-02-03T15:30:19.042Z,98918.31
2023-02-03T15:33:22.775Z,98917.94
2023-02-03T15:36:28.981Z,98917.97
2023-02-03T15:39:39.258Z,98911.28
2023-02-03T15:42:44.839Z,98922.31
2023-02-03T15:45:55.076Z,98925.84
2023-02-03T15:49:00.683Z,98914.78
2023-02-03T15:52:08.287Z,98921.97
2023-02-03T15:55:17.898Z,98917.16
2023-02-03T15:58:23.069Z,98919.81
2023-02-03T16:01:28.276Z,98923.66
2023-02-03T16:04:31.854Z,98920.66
2023-02-03T16:07:34.703Z,98925.84
2023-02-03T16:10:37.493Z,98924.81
2023-02-03T16:13:45.588Z,98931.19
2023-02-03T16:17:04.481Z,98934.34
2023-02-03T16:20:23.306Z,98936.19
2023-02-03T16:23:27.662Z,98933.38
2023-02-03T16:26:31.334Z,98923.97
2023-02-03T16:29:54.570Z,98925.66
2023-02-03T16:33:21.655Z,98919.28
2023-02-03T16:36:42.218Z,98921.13
2023-02-03T16:40:02.584Z,98930.81
2023-02-03T16:43:23.515Z,98924.28
2023-02-03T16:46:44.003Z,98922.94
2023-02-03T16:50:05.706Z,98917.94
2023-02-03T16:53:13.210Z,98918.09
2023-02-03T16:56:18.680Z,98917.28
2023-02-03T16:59:21.489Z,98909.63
2023-02-03T17:02:24.420Z,98909.72
2023-02-03T17:05:29.038Z,98916.25
2023-02-03T17:08:32.164Z,98905.56
2023-02-03T17:11:34.996Z,98905.59
2023-02-03T17:14:37.876Z,98908.44
2023-02-03T17:17:40.761Z,98910.97
2023-02-03T17:20:45.850Z,98901.78
2023-02-03T17:23:48.686Z,98902.63
2023-02-03T17:26:52.689Z,98905.06
2023-02-03T17:29:55.512Z,98904.63
2023-02-03T17:32:59.426Z,98906.94
2023-02-03T17:36:05.344Z,98898.06
2023-02-03T17:55:50.591Z,98898.00
2023-02-03T17:58:56.199Z,98901.00
2023-02-03T18:01:59.106Z,98898.66
2023-02-03T18:05:03.111Z,98897.16
2023-02-03T18:08:16.111Z,98885.63
2023-02-03T18:11:19.923Z,98891.13
2023-02-03T18:14:22.703Z,98878.44
2023-02-03T18:17:25.579Z,98889.94
2023-02-03T18:20:28.773Z,98886.59
2023-02-03T18:23:33.612Z,98878.06
2023-02-03T18:26:37.226Z,98876.88
2023-02-03T18:29:41.024Z,98864.19
2023-02-03T18:32:44.218Z,98869.03
2023-02-03T18:35:47.014Z,98866.34
2023-02-03T18:38:51.272Z,98867.00
2023-02-03T18:41:54.141Z,98873.16
2023-02-03T18:44:56.927Z,98873.34
2023-02-03T18:47:59.720Z,98866.66
2023-02-03T18:51:03.085Z,98872.84
2023-02-03T18:54:07.332Z,98869.19
2023-02-03T18:57:13.037Z,98870.69
2023-02-03T19:00:16.251Z,98871.13
2023-02-03T19:03:21.289Z,98869.78
2023-02-03T19:06:24.472Z,98869.66
2023-02-03T19:09:28.651Z,98861.63
2023-02-03T19:12:31.545Z,98871.81
2023-02-03T19:15:34.452Z,98874.81
2023-02-03T19:18:37.428Z,98867.78
2023-02-03T19:21:40.196Z,98876.81
2023-02-03T19:24:44.521Z,98867.94
2023-02-03T19:27:47.381Z,98865.88
2023-02-03T19:30:53.290Z,98858.34
2023-02-03T19:34:00.746Z,98862.44
2023-02-03T19:37:03.541Z,98850.59
2023-02-03T19:40:08.677Z,98854.41
2023-02-03T19:43:11.522Z,98846.91
2023-02-03T19:46:14.825Z,98851.28
2023-02-03T19:49:17.695Z,98843.78
2023-02-03T19:52:20.541Z,98844.47
2023-02-03T19:55:30.651Z,98834.13
2023-02-03T19:58:33.589Z,98837.31
2023-02-03T20:01:36.662Z,98835.63
2023-02-03T20:04:39.614Z,98839.50
2023-02-03T20:07:42.491Z,98835.28
2023-02-03T20:10:47.278Z,98828.47
2023-02-03T20:13:50.887Z,98829.31
2023-02-03T20:16:53.743Z,98829.16
2023-02-03T20:19:56.889Z,98825.50
2023-02-03T20:23:00.307Z,98833.69
2023-02-03T20:26:04.909Z,98838.03
2023-02-03T20:29:08.013Z,98835.69
2023-02-03T20:32:11.748Z,98829.00
2023-02-03T20:35:14.700Z,98828.81
2023-02-03T20:38:17.757Z,98824.13
2023-02-03T20:41:21.996Z,98821.25
2023-02-03T20:44:24.900Z,98823.94
2023-02-03T20:47:27.854Z,98829.09
2023-02-03T20:50:41.458Z,98827.59
2023-02-03T20:53:45.386Z,98826.09
2023-02-03T20:56:49.756Z,98827.03
2023-02-03T20:59:52.875Z,98833.91
2023-02-03T21:03:13.667Z,98832.09
2023-02-03T21:06:17.535Z,98823.03
2023-02-03T21:09:22.105Z,98837.09
2023-02-03T21:12:26.946Z,98821.03
2023-02-03T21:15:30.845Z,98819.69
2023-02-03T21:18:39.625Z,98819.34
2023-02-03T21:21:44.057Z,98819.69
2023-02-03T21:24:53.961Z,98826.31
2023-02-03T21:27:58.532Z,98824.31
2023-02-03T21:31:01.511Z,98820.00
2023-02-03T21:34:05.736Z,98821.31
2023-02-03T21:37:09.401Z,98819.34
2023-02-03T21:40:18.414Z,98813.34
2023-02-03T21:43:23.955Z,98808.00
2023-02-03T21:46:27.416Z,98805.44
2023-02-03T21:49:30.307Z,98812.59
2023-02-03T21:52:39.673Z,98811.84
2023-02-03T21:55:43.439Z,98812.94
2023-02-03T21:58:48.712Z,98802.28
2023-02-03T22:01:53.122Z,98807.25
2023-02-03T22:04:56.101Z,98802.28
2023-02-03T22:07:58.920Z,98802.22
2023-02-03T22:11:01.769Z,98804.22
2023-02-03T22:14:06.066Z,98804.59
2023-02-03T22:17:08.824Z,98797.56
2023-02-03T22:20:12.371Z,98794.91
2023-02-03T22:23:15.233Z,98794.91
2023-02-03T22:26:18.573Z,98800.63
2023-02-03T22:29:23.180Z,98797.78
2023-02-03T22:32:26.075Z,98803.59
2023-02-03T22:35:29.300Z,98793.06
2023-02-03T22:38:32.159Z,98783.38
2023-02-03T22:41:35.026Z,98789.88
2023-02-03T22:44:39.234Z,98784.16
2023-02-03T22:47:42.046Z,98786.38
2023-02-03T22:50:44.856Z,98784.72
2023-02-03T22:53:47.658Z,98774.13
2023-02-03T22:56:50.539Z,98773.94
2023-02-03T22:59:54.783Z,98777.16
2023-02-03T23:02:57.727Z,98776.13
2023-02-03T23:06:00.661Z,98786.50
2023-02-03T23:09:03.466Z,98775.81
2023-02-03T23:12:06.777Z,98780.78
2023-02-03T23:15:11.780Z,98776.13
2023-02-03T23:18:14.633Z,98781.97
2023-02-03T23:21:18.272Z,98790.31
2023-02-03T23:24:21.163Z,98790.00
2023-02-03T23:27:24.006Z,98786.97
2023-02-03T23:30:28.454Z,98777.13
2023-02-03T23:33:31.444Z,98783.78
2023-02-03T23:36:33.591Z,98789.81
2023-02-03T23:39:36.393Z,98789.50
2023-02-03T23:42:39.139Z,98784.13
2023-02-03T23:45:43.361Z,98771.41
2023-02-03T23:48:46.231Z,98777.13
2023-02-03T23:51:49.065Z,98780.44
2023-02-03T23:54:52.009Z,98776.75
2023-02-03T23:57:54.878Z,98779.63
